Time;durP1;ratioP1;P1;durP2;ratioP2;P2;SDS_P1;SDS_P2;PMS_P1;PMS_P2;Temp;Humidity;BMP_temperature;BMP_pressure;BME280_temperature;BME280_humidity;BME280_pressure;Samples;Min_cycle;Max_cycle;Signal;HPM_P1;HPM_P2
2023/02/28 00:01:35;;;;;;;10.20;5.20;;;;;;;14.49;25.43;101240.38;108321;1251;62644;-65
2023/02/28 00:04:05;;;;;;;11.20;5.10;;;;;;;14.78;25.09;101239.34;108310;1251;61337;-67
2023/02/28 00:06:32;;;;;;;11.00;4.70;;;;;;;15.02;24.80;101240.56;108307;1254;74993;-66
2023/02/28 00:09:03;;;;;;;;;;;;;;;14.46;25.33;101239.06;108337;1251;70829;-66
2023/02/28 00:11:37;;;;;;;8.20;4.80;;;;;;;14.22;25.58;101243.77;108310;1252;73885;-65
2023/02/28 00:14:05;;;;;;;9.40;4.80;;;;;;;14.17;25.75;101244.99;108378;1253;61315;-64
2023/02/28 00:16:34;;;;;;;9.10;4.90;;;;;;;14.37;25.53;101246.96;108309;1251;60425;-65
2023/02/28 00:19:06;;;;;;;9.40;4.90;;;;;;;14.46;25.33;101248.79;108218;1251;73909;-64
2023/02/28 00:21:36;;;;;;;8.40;4.80;;;;;;;14.70;25.10;101251.31;108267;1252;71210;-65
2023/02/28 00:24:04;;;;;;;8.50;4.60;;;;;;;14.60;25.11;101249.02;108325;1251;72813;-67
2023/02/28 00:26:33;;;;;;;7.60;4.80;;;;;;;14.60;24.85;101250.93;108271;1256;61669;-65
2023/02/28 00:29:01;;;;;;;9.30;5.10;;;;;;;14.52;24.96;101248.57;108158;1253;60342;-66
2023/02/28 00:31:29;;;;;;;7.80;4.60;;;;;;;14.61;24.82;101247.90;108221;1251;74795;-66
2023/02/28 00:33:58;;;;;;;9.00;5.00;;;;;;;14.50;25.13;101243.52;108279;1253;71250;-66
2023/02/28 00:36:26;;;;;;;7.60;4.00;;;;;;;14.50;24.92;101240.52;108186;1253;73647;-67
2023/02/28 00:38:54;;;;;;;9.90;4.80;;;;;;;14.51;24.96;101237.31;108260;1252;62965;-66
2023/02/28 00:41:22;;;;;;;6.70;4.50;;;;;;;14.22;25.25;101231.06;108203;1253;61588;-65
2023/02/28 00:43:51;;;;;;;9.40;4.80;;;;;;;14.18;25.11;101227.66;108284;1253;73827;-65
2023/02/28 00:46:19;;;;;;;9.00;4.90;;;;;;;14.71;24.68;101235.36;108291;1253;71478;-65
2023/02/28 00:48:47;;;;;;;9.50;5.20;;;;;;;14.67;24.48;101239.94;108234;1253;72060;-64
2023/02/28 00:51:16;;;;;;;9.60;4.70;;;;;;;14.64;24.65;101245.88;108205;1252;62947;-66
2023/02/28 00:53:44;;;;;;;6.70;4.30;;;;;;;14.81;24.66;101247.71;108309;1253;61270;-66
2023/02/28 00:56:13;;;;;;;9.60;5.10;;;;;;;14.53;24.87;101244.83;108250;1252;74453;-62
2023/02/28 00:58:42;;;;;;;10.70;4.90;;;;;;;14.26;25.28;101244.33;108287;1251;71149;-65
2023/02/28 01:01:10;;;;;;;9.70;5.00;;;;;;;14.61;25.16;101243.63;108350;1251;73652;-66
2023/02/28 01:03:38;;;;;;;7.00;4.50;;;;;;;14.45;25.19;101238.91;108344;1251;62629;-66
2023/02/28 01:06:07;;;;;;;10.10;5.30;;;;;;;14.61;25.32;101243.66;108265;1251;61364;-66
2023/02/28 01:08:35;;;;;;;8.70;4.60;;;;;;;14.53;25.18;101247.29;108300;1253;74344;-65
2023/02/28 01:11:10;;;;;;;8.30;4.60;;;;;;;14.69;24.97;101249.21;108245;1253;70974;-65
2023/02/28 01:13:41;;;;;;;8.60;5.00;;;;;;;15.11;24.58;101241.98;108327;1253;73797;-66
2023/02/28 01:16:09;;;;;;;8.90;5.10;;;;;;;15.24;24.33;101244.52;108334;1252;60849;-66
2023/02/28 01:18:39;;;;;;;8.10;5.30;;;;;;;15.14;24.29;101243.10;108175;1253;60369;-65
2023/02/28 01:21:09;;;;;;;;;;;;;;;15.23;24.16;101239.94;108316;1256;74919;-66
2023/02/28 01:23:39;;;;;;;8.90;5.00;;;;;;;14.83;24.56;101239.88;108322;1253;71353;-66
2023/02/28 01:26:08;;;;;;;9.90;5.20;;;;;;;14.46;24.92;101235.70;108295;1252;72855;-65
2023/02/28 01:28:40;;;;;;;9.70;5.50;;;;;;;14.49;24.97;101246.01;108313;1252;64098;-66
2023/02/28 01:31:08;;;;;;;9.30;5.40;;;;;;;14.48;25.16;101251.70;108233;1252;61417;-65
2023/02/28 01:33:38;;;;;;;11.80;5.70;;;;;;;14.58;25.00;101249.24;108331;1251;74042;-65
2023/02/28 01:36:11;;;;;;;8.30;5.60;;;;;;;14.66;24.75;101248.27;108319;1251;71531;-65
2023/02/28 01:38:40;;;;;;;12.30;5.90;;;;;;;14.54;24.88;101246.73;108226;1253;73720;-65
2023/02/28 01:41:09;;;;;;;10.50;6.30;;;;;;;14.73;24.74;101250.83;108180;1251;63291;-66
2023/02/28 01:43:41;;;;;;;11.00;5.40;;;;;;;14.76;24.63;101253.58;108060;1252;61556;-64
2023/02/28 01:46:10;;;;;;;9.40;5.50;;;;;;;14.76;24.89;101251.45;108305;1253;74937;-64
2023/02/28 01:48:41;;;;;;;10.40;5.10;;;;;;;14.79;24.88;101255.04;108199;1253;71217;-66
2023/02/28 01:51:11;;;;;;;10.60;5.50;;;;;;;14.87;24.64;101254.90;108188;1254;74014;-64
2023/02/28 01:53:43;;;;;;;11.70;5.60;;;;;;;14.70;24.91;101254.28;108280;1251;62634;-65
2023/02/28 01:56:20;;;;;;;10.70;5.60;;;;;;;14.71;24.64;101256.20;108181;1252;61017;-65
2023/02/28 01:58:50;;;;;;;8.40;5.20;;;;;;;14.63;24.72;101255.59;108305;1254;73922;-66
2023/02/28 02:01:23;;;;;;;10.60;5.80;;;;;;;14.63;24.75;101260.55;108173;1253;71068;-65
2023/02/28 02:03:55;;;;;;;9.40;5.50;;;;;;;14.70;24.56;101257.67;108215;1252;73382;-64
2023/02/28 02:06:29;;;;;;;9.00;5.20;;;;;;;14.86;24.44;101261.14;108179;1251;62997;-65
2023/02/28 02:08:57;;;;;;;11.40;5.80;;;;;;;14.72;24.63;101261.84;108278;1251;61594;-65
2023/02/28 02:11:25;;;;;;;9.60;5.70;;;;;;;14.79;24.59;101262.81;108257;1253;75123;-66
2023/02/28 02:13:59;;;;;;;10.40;6.00;;;;;;;14.45;24.78;101257.46;108259;1253;70633;-66
2023/02/28 02:16:51;;;;;;;8.90;5.30;;;;;;;14.57;24.68;101261.14;108208;1253;73672;-65
2023/02/28 02:19:54;;;;;;;9.50;5.20;;;;;;;14.28;24.90;101260.67;108111;1251;63197;-66
2023/02/28 02:25:55;;;;;;;11.10;5.60;;;;;;;6.85;35.72;101289.35;104881;1290;600286;-66
2023/02/28 02:28:31;;;;;;;10.50;5.80;;;;;;;10.80;29.29;101278.10;107305;1265;63072;-64
2023/02/28 02:31:30;;;;;;;9.30;5.30;;;;;;;11.39;28.84;101279.68;107340;1265;59252;-64
2023/02/28 02:34:05;;;;;;;10.60;6.10;;;;;;;11.65;28.38;101277.88;107317;1267;72225;-67
2023/02/28 02:36:49;;;;;;;9.50;5.80;;;;;;;11.70;28.20;101279.33;107355;1266;69315;-66
2023/02/28 02:39:24;;;;;;;7.90;5.00;;;;;;;11.68;27.94;101276.38;107188;1264;248295;-67
2023/02/28 02:41:53;;;;;;;10.20;5.80;;;;;;;11.75;27.87;101280.44;107448;1264;62139;-65
2023/02/28 02:44:22;;;;;;;8.70;5.70;;;;;;;11.91;27.66;101285.71;107508;1264;61017;-66
2023/02/28 02:46:53;;;;;;;8.70;5.40;;;;;;;12.13;27.62;101286.25;107478;1264;73221;-68
2023/02/28 02:49:29;;;;;;;10.90;6.30;;;;;;;12.12;27.55;101291.20;107462;1263;69037;-66
2023/02/28 02:52:01;;;;;;;9.30;5.90;;;;;;;11.78;27.64;101290.42;107440;1264;73746;-67
2023/02/28 02:54:41;;;;;;;9.40;6.80;;;;;;;12.21;27.42;101293.44;107408;1269;63251;-66
2023/02/28 02:57:17;;;;;;;14.30;6.80;;;;;;;12.39;27.29;101288.94;107603;1262;60433;-64
2023/02/28 02:59:46;;;;;;;11.40;6.40;;;;;;;12.39;27.37;101293.70;108129;1254;72140;-65
2023/02/28 03:02:14;;;;;;;11.60;7.30;;;;;;;12.42;27.37;101296.26;107906;1257;71363;-64
2023/02/28 03:04:43;;;;;;;10.70;7.10;;;;;;;12.53;27.04;101297.03;107796;1256;73637;-66
2023/02/28 03:07:13;;;;;;;;;;;;;;;12.49;27.02;101295.72;107980;1256;60129;-66
2023/02/28 03:09:54;;;;;;;11.80;7.00;;;;;;;12.68;26.83;101300.86;107956;1260;61416;-66
2023/02/28 03:12:41;;;;;;;10.70;5.90;;;;;;;12.52;27.04;101311.50;108223;1251;72290;-66
2023/02/28 03:15:16;;;;;;;10.10;6.20;;;;;;;12.45;27.29;101316.78;108224;1254;71383;-66
2023/02/28 03:18:00;;;;;;;14.90;7.90;;;;;;;12.57;27.28;101316.11;108206;1254;73632;-65
2023/02/28 03:20:42;;;;;;;11.50;6.50;;;;;;;12.94;26.98;101315.99;108282;1255;60251;-66
2023/02/28 03:23:19;;;;;;;13.10;7.80;;;;;;;12.70;27.30;101314.17;108099;1254;61328;-66
2023/02/28 03:25:53;;;;;;;10.80;6.90;;;;;;;12.68;27.27;101318.64;108293;1254;73234;-65
2023/02/28 03:28:25;;;;;;;10.90;6.90;;;;;;;12.74;26.94;101319.20;108296;1251;70825;-65
2023/02/28 03:31:00;;;;;;;11.00;6.60;;;;;;;12.80;27.02;101323.95;108303;1251;72755;-64
2023/02/28 03:33:35;;;;;;;12.40;7.80;;;;;;;12.78;27.10;101322.77;108316;1251;61960;-66
2023/02/28 03:36:08;;;;;;;10.50;6.90;;;;;;;13.04;26.79;101321.88;108196;1251;60716;-67
2023/02/28 03:39:06;;;;;;;13.80;7.40;;;;;;;13.22;26.77;101327.36;108261;1251;73626;-65
2023/02/28 03:41:42;;;;;;;13.50;7.60;;;;;;;13.19;26.75;101329.06;108272;1251;70583;-66
2023/02/28 03:44:21;;;;;;;12.60;7.20;;;;;;;13.38;26.42;101328.52;108219;1251;73552;-66
2023/02/28 03:46:54;;;;;;;11.60;6.90;;;;;;;13.25;26.60;101331.54;108294;1251;61684;-66
2023/02/28 03:49:26;;;;;;;10.40;6.50;;;;;;;13.34;26.36;101328.64;108323;1251;61298;-66
2023/02/28 03:51:55;;;;;;;12.80;7.30;;;;;;;13.14;26.54;101328.13;108249;1251;74082;-65
2023/02/28 03:54:27;;;;;;;10.40;6.90;;;;;;;13.40;26.48;101326.53;108248;1251;70470;-65
2023/02/28 03:57:01;;;;;;;14.50;7.60;;;;;;;13.33;26.39;101326.18;108339;1251;72985;-65
2023/02/28 03:59:50;;;;;;;10.60;6.80;;;;;;;13.27;26.41;101327.61;108251;1251;62214;-65
2023/02/28 04:02:19;;;;;;;11.40;7.50;;;;;;;13.41;26.22;101324.75;108228;1251;61466;-66
2023/02/28 04:04:49;;;;;;;12.10;7.20;;;;;;;13.56;26.09;101322.52;108234;1251;74227;-65
2023/02/28 04:07:17;;;;;;;11.50;6.90;;;;;;;13.54;26.08;101319.55;108239;1251;70329;-65
2023/02/28 04:09:46;;;;;;;12.10;7.30;;;;;;;13.84;25.97;101319.91;108308;1251;73034;-66
2023/02/28 04:12:17;;;;;;;12.80;7.40;;;;;;;13.63;26.08;101319.30;108242;1251;63240;-65
2023/02/28 04:14:45;;;;;;;13.30;7.50;;;;;;;13.45;26.36;101318.80;108284;1255;61544;-66
2023/02/28 04:17:18;;;;;;;11.10;7.00;;;;;;;13.54;26.31;101314.30;108308;1251;73196;-65
2023/02/28 04:19:47;;;;;;;10.90;6.60;;;;;;;13.71;26.21;101315.18;108332;1251;71469;-65
2023/02/28 04:22:17;;;;;;;10.80;7.10;;;;;;;13.89;26.18;101310.52;108289;1251;73815;-65
2023/02/28 04:24:46;;;;;;;10.40;6.80;;;;;;;13.94;25.91;101308.98;108257;1251;62134;-66
2023/02/28 04:27:15;;;;;;;11.90;6.60;;;;;;;14.35;25.60;101311.31;108285;1251;61099;-66
2023/02/28 04:29:44;;;;;;;12.90;7.80;;;;;;;14.61;25.45;101312.05;108293;1254;73887;-65
2023/02/28 04:32:12;;;;;;;13.10;7.50;;;;;;;14.35;25.69;101312.55;108240;1254;70410;-65
2023/02/28 04:34:41;;;;;;;13.30;8.20;;;;;;;14.28;25.85;101318.09;108367;1254;71094;-66
2023/02/28 04:37:09;;;;;;;11.80;7.40;;;;;;;14.49;25.44;101316.71;108299;1253;61799;-66
2023/02/28 04:39:42;;;;;;;10.90;7.30;;;;;;;14.39;25.72;101321.07;108346;1253;59560;-65
2023/02/28 04:42:11;;;;;;;11.00;6.60;;;;;;;14.51;25.75;101326.36;108357;1254;74000;-67
2023/02/28 04:44:39;;;;;;;11.00;6.50;;;;;;;14.24;25.87;101325.81;108357;1255;71475;-65
2023/02/28 04:47:08;;;;;;;12.10;7.80;;;;;;;14.67;25.58;101331.27;108340;1254;73637;-69
2023/02/28 04:49:38;;;;;;;;;;;;;;;14.39;25.81;101332.19;108165;1253;61912;-65
2023/02/28 04:52:07;;;;;;;10.20;6.30;;;;;;;14.28;25.76;101330.29;108284;1254;60585;-67
2023/02/28 04:54:35;;;;;;;11.50;6.40;;;;;;;14.20;25.92;101328.44;108128;1254;74227;-66
2023/02/28 04:57:04;;;;;;;10.40;6.70;;;;;;;14.49;25.79;101329.60;108179;1254;71014;-66
2023/02/28 04:59:33;;;;;;;10.50;6.80;;;;;;;15.00;25.17;101329.25;108352;1253;72810;-67
2023/02/28 05:02:06;;;;;;;12.00;7.40;;;;;;;14.79;25.50;101327.50;108287;1252;62697;-67
2023/02/28 05:04:34;;;;;;;12.00;7.00;;;;;;;14.71;25.49;101328.14;108326;1254;59915;-67
2023/02/28 05:07:03;;;;;;;14.80;8.00;;;;;;;14.66;25.61;101329.77;108320;1254;74414;-65
2023/02/28 05:09:32;;;;;;;14.20;8.00;;;;;;;14.47;25.78;101330.36;108118;1254;71402;-67
2023/02/28 05:12:01;;;;;;;15.50;7.80;;;;;;;14.55;25.63;101332.75;108286;1253;74217;-65
2023/02/28 05:14:29;;;;;;;12.00;7.20;;;;;;;14.73;25.54;101330.75;108394;1253;61554;-66
2023/02/28 05:16:57;;;;;;;12.90;7.70;;;;;;;14.84;25.43;101335.13;108349;1253;61239;-66
2023/02/28 05:19:25;;;;;;;13.20;6.70;;;;;;;14.69;25.40;101332.63;108214;1252;74492;-67
2023/02/28 05:21:54;;;;;;;11.30;6.00;;;;;;;14.59;25.71;101335.27;108276;1254;70161;-65
2023/02/28 05:24:24;;;;;;;11.90;6.80;;;;;;;14.67;25.63;101334.27;108144;1254;73741;-66
2023/02/28 05:26:53;;;;;;;11.70;6.80;;;;;;;14.66;25.57;101336.77;108235;1254;63013;-65
2023/02/28 05:29:22;;;;;;;12.10;6.60;;;;;;;14.43;25.79;101338.45;108280;1251;61584;-66
2023/02/28 05:31:50;;;;;;;14.50;7.90;;;;;;;14.35;25.94;101334.81;108253;1251;73959;-66
2023/02/28 05:34:18;;;;;;;10.90;6.80;;;;;;;14.92;25.52;101337.83;108264;1251;71049;-66
2023/02/28 05:36:47;;;;;;;12.20;6.50;;;;;;;14.90;25.30;101337.54;108344;1251;73589;-67
2023/02/28 05:39:15;;;;;;;13.90;6.70;;;;;;;14.90;25.53;101338.45;108382;1251;61142;-65
2023/02/28 05:41:45;;;;;;;12.60;7.70;;;;;;;14.98;25.59;101341.17;108379;1251;60052;-65
2023/02/28 05:44:13;;;;;;;14.00;7.10;;;;;;;15.27;25.26;101345.73;108357;1252;74061;-65
2023/02/28 05:46:44;;;;;;;13.70;7.20;;;;;;;15.10;25.35;101346.21;108291;1251;71230;-65
2023/02/28 05:49:12;;;;;;;16.90;8.00;;;;;;;15.15;25.41;101344.63;108518;1251;74145;-67
2023/02/28 05:51:40;;;;;;;16.50;7.50;;;;;;;14.98;25.41;101347.17;108382;1251;62495;-66
2023/02/28 05:54:09;;;;;;;15.60;7.50;;;;;;;15.01;25.57;101351.30;108374;1251;61135;-67
2023/02/28 05:56:43;;;;;;;16.10;6.80;;;;;;;14.86;25.77;101349.00;108338;1251;74016;-67
2023/02/28 05:59:13;;;;;;;13.30;7.50;;;;;;;14.68;26.05;101349.30;108325;1251;69714;-66
2023/02/28 06:01:47;;;;;;;11.70;6.90;;;;;;;15.00;25.68;101355.24;108355;1251;73741;-65
2023/02/28 06:04:18;;;;;;;11.70;6.80;;;;;;;15.43;25.26;101351.89;108364;1251;62293;-66
2023/02/28 06:06:58;;;;;;;11.70;6.80;;;;;;;15.18;25.55;101354.91;108350;1251;61146;-65
2023/02/28 06:09:29;;;;;;;17.70;7.20;;;;;;;15.02;25.73;101358.18;108402;1251;74198;-66
2023/02/28 06:11:59;;;;;;;17.10;7.80;;;;;;;15.11;25.75;101354.48;108348;1251;71602;-66
2023/02/28 06:14:27;;;;;;;15.90;8.20;;;;;;;15.35;25.54;101355.70;108451;1251;71723;-67
2023/02/28 06:16:55;;;;;;;14.10;7.40;;;;;;;15.25;25.66;101359.46;108465;1251;63203;-66
2023/02/28 06:19:29;;;;;;;13.20;7.30;;;;;;;15.35;25.46;101361.93;108336;1251;61065;-67
2023/02/28 06:21:59;;;;;;;11.80;6.90;;;;;;;15.54;25.28;101360.50;108356;1251;72873;-65
2023/02/28 06:24:28;;;;;;;12.90;6.80;;;;;;;15.21;25.35;101361.73;108371;1251;70136;-67
2023/02/28 06:26:58;;;;;;;17.00;7.30;;;;;;;15.23;25.35;101363.42;108300;1251;72619;-66
2023/02/28 06:29:28;;;;;;;10.50;6.20;;;;;;;15.16;25.42;101362.61;108152;1253;61716;-65
2023/02/28 06:31:57;;;;;;;12.00;6.80;;;;;;;15.29;25.23;101366.58;108118;1254;59506;-66
2023/02/28 06:34:25;;;;;;;13.30;7.00;;;;;;;15.64;24.84;101370.23;108356;1253;73257;-66
2023/02/28 06:36:53;;;;;;;12.30;6.60;;;;;;;15.86;24.56;101370.80;108261;1253;70469;-66
2023/02/28 06:39:22;;;;;;;10.10;6.50;;;;;;;15.89;24.51;101369.09;108202;1254;73654;-67
2023/02/28 06:41:52;;;;;;;24.00;6.80;;;;;;;16.03;24.31;101373.69;108285;1252;63277;-66
2023/02/28 06:44:23;;;;;;;13.50;5.90;;;;;;;15.81;24.42;101371.00;108241;1254;60529;-66
2023/02/28 06:46:51;;;;;;;9.90;5.60;;;;;;;15.73;24.51;101374.84;108346;1253;74939;-66
2023/02/28 06:49:24;;;;;;;9.10;5.50;;;;;;;15.50;24.61;101377.98;108371;1253;71671;-66
2023/02/28 06:51:52;;;;;;;10.70;5.70;;;;;;;15.32;24.71;101373.36;108398;1254;73529;-65
2023/02/28 06:54:20;;;;;;;12.60;6.00;;;;;;;15.61;24.71;101373.52;108297;1253;63223;-65
2023/02/28 06:56:48;;;;;;;36.60;7.70;;;;;;;15.86;24.55;101370.27;108198;1254;61314;-65
2023/02/28 06:59:17;;;;;;;10.10;6.70;;;;;;;15.90;24.50;101368.88;108289;1252;73479;-65
2023/02/28 07:01:45;;;;;;;12.20;6.10;;;;;;;15.99;24.44;101366.75;108314;1254;70039;-67
2023/02/28 07:04:14;;;;;;;11.00;5.90;;;;;;;15.89;24.40;101365.20;108337;1253;73558;-66
2023/02/28 07:06:42;;;;;;;11.40;5.70;;;;;;;15.78;24.46;101362.08;108315;1252;63233;-68
2023/02/28 07:09:10;;;;;;;8.80;6.00;;;;;;;15.45;24.72;101359.77;108265;1253;60437;-65
2023/02/28 07:11:39;;;;;;;10.60;5.90;;;;;;;15.23;24.84;101361.64;108367;1254;74684;-67
2023/02/28 07:14:07;;;;;;;8.70;5.80;;;;;;;15.37;24.75;101355.14;108253;1254;71481;-66
2023/02/28 07:16:36;;;;;;;30.40;6.40;;;;;;;15.47;24.56;101352.43;108288;1254;73605;-67
2023/02/28 07:19:08;;;;;;;12.90;6.10;;;;;;;15.64;24.52;101350.76;108314;1253;61662;-68
2023/02/28 07:21:36;;;;;;;10.00;5.60;;;;;;;15.68;24.58;101356.77;108176;1253;61275;-67
2023/02/28 07:24:05;;;;;;;13.20;6.40;;;;;;;15.59;24.59;101355.50;108287;1254;74708;-66
2023/02/28 07:26:37;;;;;;;10.50;5.70;;;;;;;15.32;24.78;101356.36;108316;1253;69564;-67
2023/02/28 07:29:07;;;;;;;8.60;5.70;;;;;;;15.22;24.85;101357.08;108328;1251;73900;-67
2023/02/28 07:31:36;;;;;;;;;;;;;;;15.00;25.16;101356.84;108286;1251;62310;-67
2023/02/28 07:34:05;;;;;;;9.30;5.50;;;;;;;15.14;25.20;101360.39;108367;1251;61018;-66
2023/02/28 07:36:32;;;;;;;10.70;5.90;;;;;;;15.14;25.02;101358.97;108410;1251;74752;-67
2023/02/28 07:39:02;;;;;;;9.20;5.40;;;;;;;15.19;24.97;101355.80;108297;1251;71239;-68
2023/02/28 07:41:33;;;;;;;10.90;6.30;;;;;;;15.30;24.94;101353.61;108418;1251;73941;-67
2023/02/28 07:44:03;;;;;;;8.60;5.20;;;;;;;15.15;25.06;101355.91;108385;1251;61855;-66
2023/02/28 07:46:35;;;;;;;10.20;6.30;;;;;;;15.31;25.14;101354.65;108259;1251;60890;-66
2023/02/28 07:49:05;;;;;;;11.30;6.20;;;;;;;15.60;24.75;101350.38;108406;1251;73837;-66
2023/02/28 07:51:33;;;;;;;10.80;6.30;;;;;;;15.60;24.60;101349.48;108455;1251;71645;-66
2023/02/28 07:54:04;;;;;;;;;;;;;;;15.49;24.74;101346.34;108304;1251;73559;-66
2023/02/28 07:56:33;;;;;;;8.90;5.00;;;;;;;15.79;24.50;101346.98;108287;1251;62011;-67
2023/02/28 07:59:02;;;;;;;9.70;5.60;;;;;;;15.90;24.46;101348.52;108264;1251;61459;-66
2023/02/28 08:01:30;;;;;;;8.60;5.20;;;;;;;15.84;24.51;101344.52;108311;1251;74848;-67
2023/02/28 08:04:00;;;;;;;8.60;5.20;;;;;;;15.58;24.62;101348.84;108412;1251;69454;-65
2023/02/28 08:06:28;;;;;;;10.50;5.80;;;;;;;15.99;24.29;101347.79;108296;1251;73275;-67
2023/02/28 08:08:57;;;;;;;8.80;5.60;;;;;;;16.00;24.25;101340.84;108176;1251;62879;-67
2023/02/28 08:11:27;;;;;;;8.90;5.20;;;;;;;15.84;24.41;101339.90;108298;1251;61271;-65
2023/02/28 08:13:55;;;;;;;17.60;6.70;;;;;;;15.60;24.84;101340.80;108359;1251;75181;-67
2023/02/28 08:16:24;;;;;;;13.20;6.30;;;;;;;15.62;24.76;101341.42;108184;1251;70270;-65
2023/02/28 08:18:53;;;;;;;8.70;5.30;;;;;;;15.72;24.69;101339.63;108290;1251;72190;-66
2023/02/28 08:21:22;;;;;;;8.60;5.50;;;;;;;15.53;24.84;101346.35;108427;1251;63211;-66
2023/02/28 08:23:51;;;;;;;11.30;6.20;;;;;;;15.60;24.83;101347.16;108326;1251;60481;-66
2023/02/28 08:26:20;;;;;;;11.00;5.50;;;;;;;15.81;24.83;101349.77;108521;1251;73837;-67
2023/02/28 08:28:50;;;;;;;10.50;5.60;;;;;;;15.92;24.48;101345.77;108405;1253;70149;-67
2023/02/28 08:31:18;;;;;;;8.50;5.30;;;;;;;16.12;24.38;101346.77;108278;1252;74187;-67
2023/02/28 08:33:50;;;;;;;11.50;5.20;;;;;;;16.02;24.31;101346.07;108267;1252;60430;-66
2023/02/28 08:36:19;;;;;;;9.60;5.10;;;;;;;16.25;23.87;101341.94;108306;1252;60329;-66
2023/02/28 08:38:48;;;;;;;9.70;5.90;;;;;;;16.26;23.83;101338.39;108245;1254;75427;-67
2023/02/28 08:41:16;;;;;;;9.00;5.90;;;;;;;16.40;23.86;101332.45;108387;1253;71075;-67
2023/02/28 08:43:44;;;;;;;7.50;5.00;;;;;;;16.75;23.30;101329.38;108294;1253;73866;-68
2023/02/28 08:46:13;;;;;;;8.70;5.30;;;;;;;16.95;23.18;101329.41;108278;1252;60453;-65
2023/02/28 08:48:43;;;;;;;11.40;5.40;;;;;;;16.52;23.17;101329.13;108307;1253;61323;-67
2023/02/28 08:51:21;;;;;;;8.40;5.60;;;;;;;16.79;22.96;101331.69;108314;1252;73883;-67
2023/02/28 08:53:49;;;;;;;9.40;5.80;;;;;;;17.23;22.95;101323.88;108366;1253;70983;-65
2023/02/28 08:56:18;;;;;;;7.40;5.20;;;;;;;17.41;22.79;101321.83;108262;1256;73575;-67
2023/02/28 08:58:47;;;;;;;8.70;5.70;;;;;;;17.63;22.52;101319.19;108245;1254;62197;-66
2023/02/28 09:01:17;;;;;;;7.50;5.30;;;;;;;17.83;22.37;101325.54;108310;1254;60418;-67
2023/02/28 09:03:48;;;;;;;9.70;5.50;;;;;;;17.67;22.28;101325.93;108307;1253;74898;-67
2023/02/28 09:06:17;;;;;;;10.10;5.70;;;;;;;17.95;22.33;101326.75;108330;1254;71251;-67
2023/02/28 09:08:47;;;;;;;10.30;6.20;;;;;;;18.08;22.12;101324.14;108282;1253;74780;-65
2023/02/28 09:11:15;;;;;;;10.00;5.50;;;;;;;17.94;22.01;101322.55;108292;1252;61168;-66
2023/02/28 09:13:48;;;;;;;9.70;6.10;;;;;;;17.97;22.16;101325.04;108342;1253;61342;-66
2023/02/28 09:16:17;;;;;;;8.40;5.60;;;;;;;18.05;21.85;101325.71;108093;1254;75045;-67
2023/02/28 09:18:45;;;;;;;10.30;6.10;;;;;;;17.48;22.12;101328.61;108412;1254;71337;-67
2023/02/28 09:21:16;;;;;;;11.60;6.60;;;;;;;17.36;22.45;101332.88;108391;1254;73388;-66
2023/02/28 09:23:46;;;;;;;11.40;6.20;;;;;;;17.81;22.21;101330.60;108328;1252;60549;-66
2023/02/28 09:26:22;;;;;;;12.90;6.80;;;;;;;17.48;22.37;101332.31;108381;1256;61439;-66
2023/02/28 09:28:51;;;;;;;9.70;6.20;;;;;;;17.45;22.34;101332.81;108386;1251;74821;-67
2023/02/28 09:31:21;;;;;;;11.10;7.00;;;;;;;17.25;22.52;101334.11;108455;1251;71626;-67
2023/02/28 09:33:52;;;;;;;13.40;7.90;;;;;;;16.94;22.84;101331.59;108249;1251;73861;-65
2023/02/28 09:36:22;;;;;;;13.10;6.90;;;;;;;16.69;23.16;101334.61;108365;1251;60318;-67
2023/02/28 09:38:58;;;;;;;11.10;6.70;;;;;;;17.59;22.62;101331.83;108344;1251;61321;-67
2023/02/28 09:41:29;;;;;;;13.70;6.90;;;;;;;17.96;22.45;101324.55;108352;1251;75207;-66
2023/02/28 09:43:59;;;;;;;11.90;7.00;;;;;;;17.74;22.49;101319.91;108430;1251;69305;-67
2023/02/28 09:46:40;;;;;;;14.20;7.70;;;;;;;17.82;22.58;101317.77;108329;1251;72849;-66
2023/02/28 09:49:19;;;;;;;11.00;6.90;;;;;;;18.20;22.22;101315.39;108316;1251;60277;-67
2023/02/28 09:52:00;;;;;;;17.90;7.10;;;;;;;18.01;22.20;101315.77;108398;1251;61047;-67
2023/02/28 09:54:30;;;;;;;;;;;;;;;18.08;22.31;101314.04;108280;1255;75073;-67
2023/02/28 09:57:08;;;;;;;10.70;6.60;;;;;;;18.12;22.37;101312.23;108253;1251;71298;-67
2023/02/28 10:00:07;;;;;;;12.40;7.50;;;;;;;18.29;22.08;101307.30;108251;1251;73135;-67
2023/02/28 10:03:01;;;;;;;15.50;7.50;;;;;;;18.57;21.80;101313.14;108271;1251;60411;-66
2023/02/28 10:05:43;;;;;;;17.60;8.40;;;;;;;18.37;21.96;101319.50;108469;1251;60401;-66
2023/02/28 10:08:16;;;;;;;12.70;8.00;;;;;;;17.94;21.99;101311.47;108361;1255;74891;-67
2023/02/28 10:10:52;;;;;;;14.70;8.60;;;;;;;17.56;22.51;101313.32;108219;1251;71428;-67
2023/02/28 10:13:46;;;;;;;15.10;9.00;;;;;;;17.99;22.15;101305.23;108291;1251;72678;-67
2023/02/28 10:16:16;;;;;;;13.30;8.00;;;;;;;17.92;22.22;101294.53;108400;1251;60494;-68
2023/02/28 10:18:54;;;;;;;13.30;7.80;;;;;;;17.35;22.82;101301.88;108335;1251;61359;-66
2023/02/28 10:21:28;;;;;;;14.50;8.30;;;;;;;17.27;22.84;101299.23;108365;1251;71804;-65
2023/02/28 10:24:02;;;;;;;12.60;8.00;;;;;;;17.14;22.88;101299.12;108163;1253;70475;-68
2023/02/28 10:26:32;;;;;;;11.00;7.70;;;;;;;17.44;22.76;101288.84;108320;1253;72636;-66
2023/02/28 10:29:02;;;;;;;14.50;8.70;;;;;;;17.71;22.64;101282.79;108245;1252;60392;-67
2023/02/28 10:31:31;;;;;;;13.80;8.40;;;;;;;17.67;22.48;101282.73;108222;1253;60801;-67
2023/02/28 10:33:59;;;;;;;13.00;6.90;;;;;;;17.88;22.28;101275.40;108135;1253;74704;-67
2023/02/28 10:36:28;;;;;;;12.30;7.80;;;;;;;18.14;21.86;101279.23;108253;1253;70603;-66
2023/02/28 10:38:57;;;;;;;15.10;9.20;;;;;;;18.49;21.63;101281.39;108219;1253;73722;-67
2023/02/28 10:41:34;;;;;;;12.30;8.00;;;;;;;18.68;21.51;101281.65;108183;1253;60419;-67
2023/02/28 10:44:28;;;;;;;13.70;8.30;;;;;;;18.99;21.24;101273.96;108218;1253;60423;-67
2023/02/28 10:46:57;;;;;;;13.60;7.70;;;;;;;19.06;21.01;101275.38;108186;1253;74846;-67
2023/02/28 10:49:26;;;;;;;13.20;7.50;;;;;;;19.95;20.58;101260.98;108309;1254;71980;-66
2023/02/28 10:51:57;;;;;;;12.90;7.80;;;;;;;20.43;19.68;101255.45;108243;1254;73634;-67
2023/02/28 10:54:30;;;;;;;15.70;7.60;;;;;;;21.04;19.65;101257.60;108190;1254;60325;-67
2023/02/28 10:57:14;;;;;;;13.10;8.10;;;;;;;21.17;19.52;101254.09;108206;1253;60419;-67
2023/02/28 10:59:43;;;;;;;17.50;7.40;;;;;;;21.28;19.28;101248.41;108203;1254;74889;-67
2023/02/28 11:02:37;;;;;;;11.60;7.50;;;;;;;21.95;18.87;101244.21;108226;1254;71005;-66
2023/02/28 11:05:32;;;;;;;12.10;7.10;;;;;;;22.15;18.57;101237.52;108249;1253;74193;-67
2023/02/28 11:08:12;;;;;;;10.90;7.00;;;;;;;22.37;18.14;101230.65;108266;1254;60753;-66
2023/02/28 11:10:49;;;;;;;13.20;7.20;;;;;;;22.81;17.99;101231.16;108256;1254;60985;-66
2023/02/28 11:13:20;;;;;;;11.30;7.10;;;;;;;23.10;17.81;101225.71;108248;1253;73934;-67
2023/02/28 11:15:51;;;;;;;10.00;6.60;;;;;;;22.94;17.59;101224.30;108138;1252;71229;-67
2023/02/28 11:18:54;;;;;;;11.40;6.70;;;;;;;23.17;17.54;101224.86;108255;1254;73497;-67
2023/02/28 11:21:33;;;;;;;9.80;6.80;;;;;;;23.02;17.47;101224.84;108113;1254;60364;-67
2023/02/28 11:24:05;;;;;;;8.80;6.40;;;;;;;23.39;17.34;101225.36;108178;1253;61522;-67
2023/02/28 11:26:44;;;;;;;8.80;6.30;;;;;;;23.67;17.05;101217.21;108147;1252;74954;-67
2023/02/28 11:29:16;;;;;;;9.60;6.20;;;;;;;23.64;17.26;101225.48;108329;1251;70770;-66
2023/02/28 11:32:15;;;;;;;8.60;6.60;;;;;;;23.84;16.76;101221.54;108264;1253;72515;-67
2023/02/28 11:34:44;;;;;;;10.30;7.20;;;;;;;23.74;16.95;101222.27;108284;1251;60529;-67
2023/02/28 11:37:15;;;;;;;9.70;6.20;;;;;;;23.38;16.90;101215.80;108444;1253;60528;-67
2023/02/28 11:39:44;;;;;;;12.10;6.70;;;;;;;23.03;17.34;101214.61;108266;1251;74083;-67